Time;durP1;ratioP1;P1;durP2;ratioP2;P2;SDS_P1;SDS_P2;PMS_P1;PMS_P2;Temp;Humidity;BMP_temperature;BMP_pressure;BME280_temperature;BME280_humidity;BME280_pressure;Samples;Min_cycle;Max_cycle;Signal;HPM_P1;HPM_P2
2021/08/27 00:00:18;;;;;;;5.57;1.77;;;;;;;17.32;56.38;99764.84;5983879;23;20093;-85
2021/08/27 00:02:44;;;;;;;7.40;1.88;;;;;;;17.30;56.60;99762.31;5981602;24;20031;-86
2021/08/27 00:05:11;;;;;;;5.13;1.35;;;;;;;17.30;56.70;99769.44;5983749;23;20041;-85
2021/08/27 00:07:38;;;;;;;6.65;1.60;;;;;;;17.30;56.92;99770.31;6005626;23;20345;-84
2021/08/27 00:10:05;;;;;;;4.55;1.38;;;;;;;17.30;56.75;99762.31;5983677;23;20028;-85
2021/08/27 00:12:32;;;;;;;8.77;1.67;;;;;;;17.30;56.89;99774.78;5983343;23;20473;-85
2021/08/27 00:14:58;;;;;;;4.93;1.55;;;;;;;17.30;57.00;99772.97;5983523;24;20024;-86
2021/08/27 00:17:29;;;;;;;6.63;1.92;;;;;;;17.29;57.02;99770.44;5982023;23;20472;-86
2021/08/27 00:19:59;;;;;;;6.60;1.40;;;;;;;17.27;57.92;99769.75;5983656;23;20032;-86
2021/08/27 00:22:27;;;;;;;6.85;1.30;;;;;;;17.27;57.05;99767.91;5983682;23;20036;-87
2021/08/27 00:24:54;;;;;;;5.50;1.85;;;;;;;17.28;57.16;99763.44;5981967;24;20020;-85
2021/08/27 00:27:20;;;;;;;6.75;1.85;;;;;;;17.28;57.24;99763.44;5983999;23;20032;-83
2021/08/27 00:29:47;;;;;;;5.85;1.67;;;;;;;17.27;57.20;99753.78;5982398;24;20435;-88
2021/08/27 00:32:14;;;;;;;4.07;1.85;;;;;;;17.27;57.18;99748.44;5983654;23;20517;-86
2021/08/27 00:34:40;;;;;;;4.43;1.63;;;;;;;17.26;57.13;99752.91;5984004;23;20028;-89
2021/08/27 00:37:07;;;;;;;6.00;1.27;;;;;;;17.24;57.33;99759.34;5982531;24;20043;-85
2021/08/27 00:39:34;;;;;;;6.00;1.83;;;;;;;17.24;57.45;99746.91;5982576;23;20028;-86
2021/08/27 00:42:01;;;;;;;5.47;1.40;;;;;;;17.22;57.52;99751.50;5982806;24;20035;-85
2021/08/27 00:44:27;;;;;;;4.65;1.42;;;;;;;17.21;57.57;99757.78;5982115;24;20024;-90
2021/08/27 00:46:58;;;;;;;6.63;1.75;;;;;;;17.19;58.47;99754.41;6005655;23;20529;-88
2021/08/27 00:49:24;;;;;;;5.78;1.38;;;;;;;17.20;57.93;99766.75;5981765;23;20020;-85
2021/08/27 00:51:51;;;;;;;5.57;1.30;;;;;;;17.19;57.88;99760.59;5984066;23;20081;-85
2021/08/27 00:54:19;;;;;;;6.20;1.85;;;;;;;17.19;57.84;99755.25;5982372;24;20089;-88
2021/08/27 00:56:45;;;;;;;6.38;1.75;;;;;;;17.21;57.96;99756.94;5982685;23;20513;-89
2021/08/27 00:59:12;;;;;;;8.77;1.80;;;;;;;17.20;58.19;99758.78;5983702;23;20084;-88
2021/08/27 01:01:39;;;;;;;7.95;1.52;;;;;;;17.19;57.97;99743.75;5982816;24;20035;-89
2021/08/27 01:04:06;;;;;;;6.70;1.90;;;;;;;17.18;57.90;99742.94;5981860;23;20020;-90
2021/08/27 01:06:50;;;;;;;3.28;1.40;;;;;;;17.15;58.78;99737.03;5981961;23;20044;-90
2021/08/27 01:09:32;;;;;;;4.03;1.70;;;;;;;17.16;58.50;99747.53;5983516;23;20036;-86
2021/08/27 01:12:07;;;;;;;6.82;1.70;;;;;;;17.15;58.36;99747.66;5984181;23;20032;-88
2021/08/27 01:14:46;;;;;;;4.18;1.70;;;;;;;17.12;58.55;99750.59;5982174;24;20028;-88
2021/08/27 01:17:16;;;;;;;7.35;1.45;;;;;;;17.11;58.23;99756.88;5983026;23;20028;-89
2021/08/27 01:20:00;;;;;;;4.75;1.80;;;;;;;17.06;59.00;99757.28;5983634;23;20357;-85
2021/08/27 01:22:46;;;;;;;4.10;1.85;;;;;;;17.07;58.06;99748.31;5982408;24;20032;-88
2021/08/27 01:25:17;;;;;;;6.78;1.50;;;;;;;17.05;58.31;99753.75;5982299;24;20028;-84
2021/08/27 01:27:45;;;;;;;5.78;1.67;;;;;;;17.05;58.54;99768.91;5982039;24;20044;-86
2021/08/27 01:30:16;;;;;;;4.75;1.67;;;;;;;17.04;59.12;99759.19;5983279;23;20406;-91
2021/08/27 01:32:53;;;;;;;7.72;1.45;;;;;;;17.03;59.26;99769.00;5982324;24;20035;-91
2021/08/27 01:35:21;;;;;;;5.72;1.73;;;;;;;17.05;58.58;99764.41;5981801;24;20062;-85
2021/08/27 01:37:50;;;;;;;6.13;1.67;;;;;;;17.04;58.78;99765.38;5983326;23;20035;-89
2021/08/27 01:40:22;;;;;;;5.63;2.08;;;;;;;17.03;59.21;99769.00;5982313;24;20028;-90
2021/08/27 01:42:50;;;;;;;3.50;1.40;;;;;;;17.02;59.24;99767.31;5983993;23;20035;-88
2021/08/27 01:45:23;;;;;;;4.63;1.55;;;;;;;16.99;60.32;99759.59;5982134;23;20047;-88
2021/08/27 01:47:50;;;;;;;5.50;1.73;;;;;;;17.00;59.31;99763.06;5983666;24;20028;-88
2021/08/27 01:50:18;;;;;;;4.60;1.50;;;;;;;16.97;59.56;99758.03;5981641;23;20031;-88
2021/08/27 01:52:46;;;;;;;4.55;1.25;;;;;;;16.94;59.53;99762.63;5981770;24;20596;-88
2021/08/27 01:55:13;;;;;;;5.50;1.50;;;;;;;16.90;59.68;99758.53;5982046;24;20525;-87
2021/08/27 01:57:42;;;;;;;3.67;1.17;;;;;;;16.89;59.88;99758.66;5981629;24;20465;-89
2021/08/27 02:00:10;;;;;;;3.80;1.50;;;;;;;16.85;60.12;99766.03;5981687;24;20032;-90
2021/08/27 02:02:39;;;;;;;3.80;1.55;;;;;;;16.84;59.82;99756.41;5981240;24;20544;-87
2021/08/27 02:05:07;;;;;;;4.00;1.13;;;;;;;16.85;59.79;99767.88;5981569;23;20020;-91
2021/08/27 02:07:35;;;;;;;4.25;1.20;;;;;;;16.84;59.94;99766.16;6004769;23;20080;-91
2021/08/27 02:10:03;;;;;;;5.70;1.52;;;;;;;16.85;60.19;99757.25;5981425;24;20088;-85
2021/08/27 02:12:30;;;;;;;3.85;1.30;;;;;;;16.84;59.98;99753.72;5981795;24;20472;-86
2021/08/27 02:14:58;;;;;;;3.67;1.45;;;;;;;16.83;60.13;99749.41;6005001;23;20028;-87
2021/08/27 02:17:25;;;;;;;6.68;1.60;;;;;;;16.82;60.20;99753.00;5983557;23;20024;-90
2021/08/27 02:19:53;;;;;;;5.05;1.55;;;;;;;16.80;60.30;99755.81;5981151;23;20032;-91
2021/08/27 02:22:22;;;;;;;6.97;1.73;;;;;;;16.78;60.86;99760.41;5982937;23;20028;-86
2021/08/27 02:25:12;;;;;;;5.32;1.60;;;;;;;16.74;61.34;99758.97;5981711;24;20457;-89
2021/08/27 02:27:40;;;;;;;3.90;1.00;;;;;;;16.78;60.26;99763.06;5981553;24;20032;-90
2021/08/27 02:30:09;;;;;;;3.92;1.20;;;;;;;16.76;60.51;99756.19;5981461;24;20028;-89
2021/08/27 02:32:36;;;;;;;3.72;1.25;;;;;;;16.76;60.21;99759.69;5983001;23;20479;-87
2021/08/27 02:35:05;;;;;;;2.72;1.40;;;;;;;16.72;60.45;99757.41;5983035;23;20020;-90
2021/08/27 02:37:36;;;;;;;6.70;1.60;;;;;;;16.71;60.66;99761.06;5981631;24;20023;-86
2021/08/27 02:40:03;;;;;;;2.60;1.17;;;;;;;16.70;60.45;99762.84;5981409;24;20084;-87
2021/08/27 02:42:31;;;;;;;5.13;1.48;;;;;;;16.69;60.48;99761.16;5981784;23;20028;-87
2021/08/27 02:45:00;;;;;;;6.43;1.55;;;;;;;16.68;60.80;99756.84;5981763;24;20364;-90
2021/08/27 02:47:26;;;;;;;3.03;1.20;;;;;;;16.68;60.62;99747.03;5983047;23;20032;-87
2021/08/27 02:49:54;;;;;;;3.42;1.33;;;;;;;16.68;61.00;99749.69;5993879;23;20029;-88
2021/08/27 02:52:40;;;;;;;6.93;1.38;;;;;;;16.68;60.81;99749.69;5962998;23;20059;-88
2021/08/27 02:55:18;;;;;;;3.67;1.25;;;;;;;16.65;61.76;99747.31;5985604;23;20024;-88
2021/08/27 02:57:57;;;;;;;6.38;1.70;;;;;;;16.65;61.86;99757.94;5986849;23;20027;-87
2021/08/27 03:00:27;;;;;;;5.93;1.70;;;;;;;16.67;61.22;99757.78;5986140;23;20027;-88
2021/08/27 03:02:55;;;;;;;3.58;1.30;;;;;;;16.65;61.25;99749.97;6011245;23;20035;-91
2021/08/27 03:05:27;;;;;;;3.22;1.52;;;;;;;16.64;61.43;99752.75;5986399;23;20015;-88
2021/08/27 03:08:12;;;;;;;6.10;1.65;;;;;;;16.61;62.24;99760.97;5986310;23;20023;-88
2021/08/27 03:11:14;;;;;;;6.32;1.55;;;;;;;16.58;62.21;99763.88;5985803;23;20039;-90
2021/08/27 03:13:48;;;;;;;2.83;1.20;;;;;;;16.61;62.14;99753.00;6004943;23;20036;-90
2021/08/27 03:16:18;;;;;;;4.07;1.45;;;;;;;16.60;62.16;99752.13;5986593;23;20393;-91
2021/08/27 03:19:03;;;;;;;7.38;1.77;;;;;;;16.56;62.36;99748.03;6010771;23;20345;-92
2021/08/27 03:21:43;;;;;;;7.70;2.20;;;;;;;16.59;61.72;99746.97;6011531;23;20023;-92
2021/08/27 03:24:15;;;;;;;6.90;1.70;;;;;;;16.57;62.01;99744.44;5986320;23;20020;-89
2021/08/27 03:26:44;;;;;;;8.25;1.52;;;;;;;16.58;61.70;99753.22;6010992;23;20024;-87
2021/08/27 03:29:15;;;;;;;4.97;1.83;;;;;;;16.56;62.35;99752.53;5986707;23;20032;-90
2021/08/27 03:31:42;;;;;;;6.10;1.90;;;;;;;16.56;61.66;99761.31;5987094;23;20083;-88
2021/08/27 03:34:10;;;;;;;5.85;1.98;;;;;;;16.56;61.76;99768.47;5987598;23;20020;-90
2021/08/27 03:36:39;;;;;;;6.55;1.70;;;;;;;16.56;61.81;99749.88;6012500;23;20032;-92
2021/08/27 03:39:08;;;;;;;4.68;2.00;;;;;;;16.56;62.07;99752.53;5987681;23;20027;-88
2021/08/27 03:41:37;;;;;;;5.50;1.50;;;;;;;16.54;62.55;99753.50;5987725;23;20050;-90
2021/08/27 03:44:05;;;;;;;6.47;1.83;;;;;;;16.57;62.01;99756.88;5987428;23;20487;-90
2021/08/27 03:46:32;;;;;;;6.20;2.28;;;;;;;16.57;61.99;99755.06;5988185;23;20664;-87
2021/08/27 03:48:59;;;;;;;5.32;1.52;;;;;;;16.58;62.06;99751.44;6012661;23;20034;-87
2021/08/27 03:51:27;;;;;;;7.78;1.80;;;;;;;16.60;62.33;99749.47;5987658;23;20027;-87
2021/08/27 03:54:15;;;;;;;3.38;1.40;;;;;;;16.61;62.13;99739.69;5991904;23;20103;-86
2021/08/27 03:56:42;;;;;;;3.28;1.50;;;;;;;16.62;62.04;99741.38;6012957;23;20042;-86
2021/08/27 03:59:11;;;;;;;4.72;1.83;;;;;;;16.63;62.33;99751.06;6012737;23;20028;-90
2021/08/27 04:01:39;;;;;;;2.55;1.52;;;;;;;16.65;62.26;99746.44;6012350;23;20499;-89
2021/08/27 04:04:06;;;;;;;4.20;1.40;;;;;;;16.64;62.18;99739.47;6012212;23;20034;-92
2021/08/27 04:06:34;;;;;;;5.63;2.00;;;;;;;16.63;62.20;99743.91;6012838;23;20099;-91
2021/08/27 04:09:00;;;;;;;6.22;1.33;;;;;;;16.63;62.20;99743.91;5987614;23;20076;-87
2021/08/27 04:11:27;;;;;;;6.75;2.00;;;;;;;16.62;62.38;99741.38;6012534;23;20028;-88
2021/08/27 04:13:53;;;;;;;4.50;2.15;;;;;;;16.62;62.20;99747.56;5987659;23;20023;-88
2021/08/27 04:16:20;;;;;;;3.80;1.25;;;;;;;16.62;62.53;99747.56;5987655;23;20024;-88
2021/08/27 04:18:47;;;;;;;5.10;1.92;;;;;;;16.62;62.38;99746.69;5987391;23;20024;-90
2021/08/27 04:21:14;;;;;;;4.65;1.60;;;;;;;16.62;62.39;99759.97;5987654;23;20030;-91
2021/08/27 04:23:40;;;;;;;3.30;1.52;;;;;;;16.62;62.48;99758.19;6012473;23;20031;-88
2021/08/27 04:26:07;;;;;;;5.28;1.88;;;;;;;16.62;62.44;99749.34;6011785;23;20020;-87
2021/08/27 04:28:33;;;;;;;4.22;1.40;;;;;;;16.65;62.52;99757.09;5987752;23;20023;-90
2021/08/27 04:31:00;;;;;;;5.90;1.92;;;;;;;16.63;62.43;99753.72;6012142;23;20401;-91
2021/08/27 04:33:27;;;;;;;4.10;1.70;;;;;;;16.64;62.62;99764.19;5987591;23;20030;-88
2021/08/27 04:35:53;;;;;;;5.20;1.55;;;;;;;16.64;62.48;99755.41;5987616;23;20019;-88
2021/08/27 04:38:25;;;;;;;3.55;1.25;;;;;;;16.64;62.38;99744.78;5987817;23;20028;-90
2021/08/27 04:40:52;;;;;;;3.75;1.83;;;;;;;16.64;62.18;99752.75;5987405;23;20150;-87
2021/08/27 04:43:18;;;;;;;7.53;2.00;;;;;;;16.61;62.26;99751.19;5986997;23;20028;-90
2021/08/27 04:45:45;;;;;;;2.85;1.35;;;;;;;16.60;62.36;99752.13;5987024;23;20024;-92
2021/08/27 04:48:11;;;;;;;3.42;1.55;;;;;;;16.60;62.48;99743.34;5987030;23;20020;-88
2021/08/27 04:50:38;;;;;;;4.63;1.60;;;;;;;16.57;62.41;99744.44;6011617;23;20024;-88
2021/08/27 04:53:05;;;;;;;5.88;1.52;;;;;;;16.57;62.53;99746.25;5987049;23;20030;-91
2021/08/27 04:55:32;;;;;;;5.28;1.60;;;;;;;16.56;62.46;99744.56;5987276;23;20028;-91
2021/08/27 04:57:58;;;;;;;3.25;1.45;;;;;;;16.57;62.62;99754.22;6012140;23;20028;-85
2021/08/27 05:00:25;;;;;;;3.90;1.73;;;;;;;16.56;62.88;99742.72;6011955;23;20464;-92
2021/08/27 05:02:52;;;;;;;5.80;1.80;;;;;;;16.55;62.71;99746.38;6011838;23;20027;-89
2021/08/27 05:05:22;;;;;;;3.47;1.30;;;;;;;16.56;63.31;99745.38;6011921;23;20024;-90
2021/08/27 05:07:54;;;;;;;2.70;1.50;;;;;;;16.57;62.74;99743.59;5988322;23;20356;-87
2021/08/27 05:10:21;;;;;;;4.30;1.52;;;;;;;16.58;62.66;99737.28;5987186;23;20084;-88
2021/08/27 05:12:47;;;;;;;4.20;1.67;;;;;;;16.59;62.87;99723.06;5987265;23;20032;-90
2021/08/27 05:15:14;;;;;;;3.67;1.65;;;;;;;16.56;62.67;99726.78;5987805;23;20027;-90
2021/08/27 05:17:41;;;;;;;5.05;2.00;;;;;;;16.56;62.73;99731.28;5986753;23;20043;-88
2021/08/27 05:20:08;;;;;;;4.28;2.28;;;;;;;16.53;62.77;99746.47;6011820;23;20087;-90
2021/08/27 05:22:35;;;;;;;6.72;1.80;;;;;;;16.52;62.89;99760.75;6011717;23;20046;-87
2021/08/27 05:25:02;;;;;;;6.28;1.92;;;;;;;16.53;62.95;99759.75;5986400;23;20034;-90
2021/08/27 05:27:29;;;;;;;2.92;1.70;;;;;;;16.53;63.14;99761.59;5986968;23;20031;-87
2021/08/27 05:29:56;;;;;;;4.97;2.13;;;;;;;16.54;63.34;99757.97;5986790;23;20028;-88
2021/08/27 05:32:24;;;;;;;3.70;2.08;;;;;;;16.56;63.37;99760.50;5986822;23;20035;-87
2021/08/27 05:34:50;;;;;;;3.72;1.90;;;;;;;16.57;63.46;99764.84;6011880;23;20024;-88
2021/08/27 05:37:18;;;;;;;3.67;1.52;;;;;;;16.58;63.36;99758.53;6011540;23;20024;-87
2021/08/27 05:39:45;;;;;;;3.92;1.38;;;;;;;16.58;63.62;99756.75;5986655;23;20035;-89
2021/08/27 05:42:11;;;;;;;4.88;1.80;;;;;;;16.60;63.30;99753.97;5986674;23;20035;-87
2021/08/27 05:44:39;;;;;;;5.57;2.10;;;;;;;16.61;63.54;99753.00;5986618;23;20357;-90
2021/08/27 05:47:06;;;;;;;5.00;1.75;;;;;;;16.62;63.47;99754.66;5964010;23;20027;-90
2021/08/27 05:49:34;;;;;;;7.57;2.20;;;;;;;16.62;63.60;99766.16;6010873;23;20027;-88
2021/08/27 05:52:01;;;;;;;4.07;1.98;;;;;;;16.64;63.78;99764.19;5986462;23;20024;-88
2021/08/27 05:54:27;;;;;;;4.40;1.63;;;;;;;16.65;63.69;99762.41;5986598;23;20064;-85
2021/08/27 05:56:55;;;;;;;10.02;1.70;;;;;;;16.67;63.83;99771.94;5986376;23;20023;-90
2021/08/27 05:59:22;;;;;;;5.70;1.88;;;;;;;16.69;63.90;99779.78;5986559;23;20401;-88
2021/08/27 06:01:49;;;;;;;3.60;2.03;;;;;;;16.73;63.94;99778.56;6011166;23;20456;-87
2021/08/27 06:04:15;;;;;;;6.95;2.22;;;;;;;16.76;64.00;99774.78;5986742;23;20028;-88
2021/08/27 06:06:42;;;;;;;5.70;1.98;;;;;;;16.77;64.11;99777.31;5986447;23;20040;-88
2021/08/27 06:09:09;;;;;;;6.50;2.35;;;;;;;16.80;63.88;99777.09;5986522;23;20483;-87
2021/08/27 06:11:37;;;;;;;6.82;3.17;;;;;;;16.84;64.19;99776.81;5986040;23;20027;-86
2021/08/27 06:14:05;;;;;;;6.82;3.30;;;;;;;16.85;64.30;99776.69;5986029;23;20027;-87
2021/08/27 06:16:35;;;;;;;6.85;3.58;;;;;;;16.89;64.38;99763.97;5986957;23;20019;-87
2021/08/27 06:19:06;;;;;;;10.80;4.57;;;;;;;16.92;64.22;99764.56;6011361;23;20023;-89
2021/08/27 06:21:34;;;;;;;7.30;3.95;;;;;;;16.95;64.36;99760.81;5986528;23;20028;-87
2021/08/27 06:24:01;;;;;;;7.63;3.75;;;;;;;16.98;64.29;99771.19;5986433;23;20024;-87
2021/08/27 06:26:28;;;;;;;7.22;3.50;;;;;;;17.00;64.41;99774.56;6011272;23;20030;-92
2021/08/27 06:28:56;;;;;;;5.65;2.75;;;;;;;17.04;64.62;99773.38;5986421;23;20031;-86
2021/08/27 06:31:24;;;;;;;7.07;2.70;;;;;;;17.09;64.34;99775.66;5985729;23;20080;-88
2021/08/27 06:33:51;;;;;;;6.50;2.58;;;;;;;17.14;64.68;99773.44;6010645;23;20076;-87
2021/08/27 06:36:18;;;;;;;5.63;3.00;;;;;;;17.18;64.42;99769.53;5986132;23;20024;-85
2021/08/27 06:38:44;;;;;;;4.57;2.30;;;;;;;17.23;64.47;99777.13;6010809;23;20632;-89
2021/08/27 06:41:12;;;;;;;5.60;2.55;;;;;;;17.29;64.36;99776.59;6010635;23;20027;-85
2021/08/27 06:43:42;;;;;;;9.43;2.78;;;;;;;17.34;64.58;99768.22;5986199;23;20027;-87
2021/08/27 06:46:18;;;;;;;4.68;2.17;;;;;;;17.40;64.59;99766.84;6010580;23;20638;-86
2021/08/27 06:48:45;;;;;;;6.57;2.63;;;;;;;17.47;64.31;99767.16;6010497;23;20425;-86
2021/08/27 06:51:12;;;;;;;5.25;2.22;;;;;;;17.52;64.22;99759.63;6010696;23;20364;-87
2021/08/27 06:53:42;;;;;;;6.40;2.28;;;;;;;17.57;64.45;99768.06;6010979;23;20028;-90
2021/08/27 06:56:09;;;;;;;9.40;3.00;;;;;;;17.62;64.19;99765.84;6010749;23;20019;-91
2021/08/27 06:58:36;;;;;;;7.60;2.92;;;;;;;17.69;64.19;99771.50;5985901;23;20027;-85
2021/08/27 07:01:02;;;;;;;8.20;3.28;;;;;;;17.74;64.04;99771.06;5985912;23;20472;-87
2021/08/27 07:03:30;;;;;;;7.00;3.50;;;;;;;17.79;64.09;99776.84;6010803;23;20028;-86
2021/08/27 07:05:57;;;;;;;7.38;3.25;;;;;;;17.84;63.94;99777.28;5986566;23;20026;-87
2021/08/27 07:08:24;;;;;;;6.05;3.47;;;;;;;17.89;64.31;99783.06;6014053;23;20101;-88
2021/08/27 07:10:51;;;;;;;5.90;3.08;;;;;;;17.96;64.52;99778.88;6013619;23;20083;-87
2021/08/27 07:13:17;;;;;;;6.05;2.88;;;;;;;18.06;64.47;99768.22;6013681;23;20031;-89
2021/08/27 07:15:44;;;;;;;8.07;3.17;;;;;;;18.16;64.29;99767.47;6013384;23;20409;-85
2021/08/27 07:18:12;;;;;;;7.68;2.88;;;;;;;18.26;64.07;99775.47;6013886;23;20035;-86
2021/08/27 07:20:39;;;;;;;8.35;3.60;;;;;;;18.33;63.96;99773.94;5988555;23;20079;-88
2021/08/27 07:23:06;;;;;;;9.88;3.08;;;;;;;18.40;63.85;99769.75;5989052;23;20032;-86
2021/08/27 07:25:32;;;;;;;5.95;2.45;;;;;;;18.48;63.67;99769.06;5989353;23;20030;-90
2021/08/27 07:27:59;;;;;;;4.95;2.60;;;;;;;18.52;63.39;99775.78;5989361;23;20032;-90
2021/08/27 07:30:26;;;;;;;6.85;2.75;;;;;;;18.56;63.24;99779.88;5989143;23;20030;-88
2021/08/27 07:32:53;;;;;;;4.05;2.90;;;;;;;18.60;63.39;99783.09;6012443;23;20080;-87
2021/08/27 07:35:20;;;;;;;6.20;2.78;;;;;;;18.64;63.20;99776.50;5988578;23;20049;-86
2021/08/27 07:37:46;;;;;;;10.07;2.97;;;;;;;18.67;62.90;99783.38;6013795;23;20023;-86
2021/08/27 07:40:15;;;;;;;7.18;2.83;;;;;;;18.68;62.98;99788.56;5988934;23;20027;-87
2021/08/27 07:42:43;;;;;;;5.97;3.08;;;;;;;18.70;63.10;99777.78;6013863;23;20024;-88
2021/08/27 07:45:10;;;;;;;6.78;2.55;;;;;;;18.73;62.98;99780.97;5988494;23;20080;-89
2021/08/27 07:47:37;;;;;;;5.78;2.25;;;;;;;18.76;63.00;99782.53;5989030;23;20023;-88
2021/08/27 07:50:05;;;;;;;7.80;2.58;;;;;;;18.79;62.60;99774.25;5983678;24;20035;-89
2021/08/27 07:52:31;;;;;;;7.45;2.58;;;;;;;18.80;62.63;99786.59;5985551;23;20036;-88
2021/08/27 07:54:58;;;;;;;5.13;2.28;;;;;;;18.81;61.86;99774.13;5984386;24;20103;-87
2021/08/27 07:57:25;;;;;;;7.07;2.10;;;;;;;18.79;62.35;99782.25;5984347;24;20487;-88
2021/08/27 08:00:04;;;;;;;6.75;1.95;;;;;;;18.72;62.54;99778.44;5984088;23;20028;-88
2021/08/27 08:02:34;;;;;;;5.05;2.00;;;;;;;18.76;62.23;99769.19;5983868;23;20024;-87
2021/08/27 08:05:04;;;;;;;7.45;2.05;;;;;;;18.79;62.77;99776.06;5985089;23;20513;-87
2021/08/27 08:07:33;;;;;;;10.83;2.73;;;;;;;18.81;62.32;99776.78;5984191;24;20099;-88
2021/08/27 08:09:59;;;;;;;5.03;1.75;;;;;;;18.86;62.54;99777.19;5985026;23;20365;-88
2021/08/27 08:12:26;;;;;;;3.45;1.73;;;;;;;18.88;62.56;99784.06;5983839;24;20020;-88
2021/08/27 08:14:57;;;;;;;4.25;1.90;;;;;;;18.90;62.87;99778.59;5985245;23;20039;-89
2021/08/27 08:17:24;;;;;;;5.05;1.92;;;;;;;18.94;62.18;99766.66;5984413;24;20024;-87
2021/08/27 08:19:50;;;;;;;4.38;1.70;;;;;;;18.96;62.45;99779.88;5983465;23;20054;-86
2021/08/27 08:22:19;;;;;;;6.57;1.77;;;;;;;18.97;62.14;99778.88;5984353;23;20326;-87
2021/08/27 08:24:46;;;;;;;4.43;1.67;;;;;;;18.97;62.28;99771.72;5984200;23;20028;-86
2021/08/27 08:27:13;;;;;;;4.88;1.80;;;;;;;18.98;62.32;99772.56;5984022;23;20093;-88
2021/08/27 08:29:39;;;;;;;3.92;1.33;;;;;;;18.99;62.64;99777.75;5981913;23;20356;-89
2021/08/27 08:32:09;;;;;;;3.42;1.40;;;;;;;19.02;62.71;99771.28;5983996;23;20028;-87
2021/08/27 08:34:35;;;;;;;5.00;1.58;;;;;;;19.05;62.37;99779.03;5983347;23;20389;-87
2021/08/27 08:37:02;;;;;;;5.18;1.50;;;;;;;19.06;62.27;99780.72;5984024;23;20080;-88
2021/08/27 08:39:29;;;;;;;5.82;1.92;;;;;;;19.05;62.19;99768.38;5982336;23;20035;-88
2021/08/27 08:41:56;;;;;;;5.03;1.50;;;;;;;19.04;62.24;99772.00;5982234;24;20059;-90
2021/08/27 08:44:22;;;;;;;4.15;1.60;;;;;;;19.04;62.11;99776.47;5983074;23;20021;-88
2021/08/27 08:46:51;;;;;;;5.93;1.27;;;;;;;19.02;62.42;99769.47;5982564;23;20027;-87
2021/08/27 08:49:20;;;;;;;7.90;1.92;;;;;;;19.01;62.70;99764.28;5985853;23;20047;-87
2021/08/27 08:51:50;;;;;;;4.78;1.48;;;;;;;19.01;63.27;99767.78;5987187;23;20083;-89
2021/08/27 08:54:18;;;;;;;5.65;1.80;;;;;;;19.05;63.45;99770.16;5986492;23;20023;-89
2021/08/27 08:56:45;;;;;;;5.63;1.80;;;;;;;19.11;63.81;99766.97;6011897;23;20019;-90
2021/08/27 08:59:15;;;;;;;4.65;1.55;;;;;;;19.20;64.20;99759.91;5987286;23;20020;-89
2021/08/27 09:01:42;;;;;;;5.50;1.80;;;;;;;19.33;64.82;99755.09;6011956;23;20056;-89
2021/08/27 09:04:09;;;;;;;6.15;1.60;;;;;;;19.51;64.96;99746.38;6011719;23;20452;-90
2021/08/27 09:06:36;;;;;;;4.35;1.45;;;;;;;19.67;64.70;99757.22;5987127;23;20325;-89
2021/08/27 09:09:06;;;;;;;7.13;1.95;;;;;;;19.84;63.87;99754.78;6011766;23;20027;-88
2021/08/27 09:11:39;;;;;;;4.97;1.77;;;;;;;20.00;63.67;99754.16;6011681;23;20027;-91
2021/08/27 09:14:29;;;;;;;4.55;1.75;;;;;;;20.13;62.97;99758.31;6011612;23;20098;-88
2021/08/27 09:17:06;;;;;;;6.15;1.70;;;;;;;20.22;62.86;99752.06;6011359;23;20536;-90
2021/08/27 09:19:49;;;;;;;6.70;1.77;;;;;;;20.33;62.67;99756.34;6011497;23;20034;-90
2021/08/27 09:22:17;;;;;;;4.60;1.60;;;;;;;20.49;61.88;99770.88;6010003;23;20085;-85
2021/08/27 09:25:02;;;;;;;2.03;1.08;;;;;;;20.55;61.23;99764.91;6011388;23;20027;-89
2021/08/27 09:27:28;;;;;;;4.00;1.33;;;;;;;20.56;60.58;99767.44;6011722;23;20023;-85
2021/08/27 09:29:55;;;;;;;5.07;1.45;;;;;;;20.53;60.38;99766.91;6010998;23;20024;-88
2021/08/27 09:32:28;;;;;;;8.50;1.80;;;;;;;20.49;60.74;99770.88;5987022;23;20032;-88
2021/08/27 09:35:10;;;;;;;4.53;1.40;;;;;;;20.42;60.34;99767.97;6011546;23;20028;-87
2021/08/27 09:37:44;;;;;;;4.25;1.38;;;;;;;20.40;60.66;99768.13;6011442;23;20019;-89
2021/08/27 09:40:19;;;;;;;3.35;1.25;;;;;;;20.39;60.61;99769.13;6011326;23;20034;-87
2021/08/27 09:42:51;;;;;;;6.28;1.48;;;;;;;20.37;60.54;99772.94;5987529;23;20031;-90
2021/08/27 09:45:31;;;;;;;3.97;1.23;;;;;;;20.34;60.39;99774.09;5986656;23;20063;-89
2021/08/27 09:48:02;;;;;;;4.30;1.30;;;;;;;20.31;60.53;99775.19;6011163;23;20465;-88
2021/08/27 09:50:31;;;;;;;3.85;1.60;;;;;;;20.31;60.33;99774.38;6010951;23;20024;-87
2021/08/27 09:53:00;;;;;;;5.28;1.60;;;;;;;20.27;60.45;99773.84;6011751;23;20047;-86
2021/08/27 09:55:29;;;;;;;3.78;1.33;;;;;;;20.25;60.30;99769.63;6010663;23;20080;-87
2021/08/27 09:58:10;;;;;;;4.88;1.52;;;;;;;20.20;60.47;99766.56;6010969;23;20075;-89
2021/08/27 10:00:41;;;;;;;4.18;1.50;;;;;;;20.19;60.69;99760.41;5986038;23;20464;-86
2021/08/27 10:03:25;;;;;;;2.53;1.40;;;;;;;20.17;60.70;99762.38;5986762;23;20051;-84
2021/08/27 10:05:54;;;;;;;;;;;;;;;20.21;60.62;99770.91;5987052;23;20030;-88
2021/08/27 10:08:22;;;;;;;2.58;1.10;;;;;;;20.25;59.92;99774.97;6010999;23;19922;-88
2021/08/27 10:10:54;;;;;;;1.98;0.80;;;;;;;20.20;59.95;99774.59;6011467;23;20062;-88
2021/08/27 10:13:25;;;;;;;2.53;1.20;;;;;;;20.15;60.51;99775.88;5986817;23;20032;-88
2021/08/27 10:15:53;;;;;;;2.17;1.08;;;;;;;20.13;61.10;99772.53;6010892;23;20054;-90
2021/08/27 10:18:19;;;;;;;2.53;1.13;;;;;;;20.16;61.27;99772.22;6010863;23;20028;-89
2021/08/27 10:20:47;;;;;;;2.03;1.13;;;;;;;20.20;60.67;99764.75;6010895;23;20034;-89
2021/08/27 10:23:17;;;;;;;3.90;1.05;;;;;;;20.26;60.93;99765.97;6010944;23;20028;-88
2021/08/27 10:25:45;;;;;;;2.05;1.20;;;;;;;20.33;61.11;99756.34;5986294;23;20127;-87
2021/08/27 10:28:13;;;;;;;2.58;1.00;;;;;;;20.43;61.24;99761.63;6010671;23;20367;-88
2021/08/27 10:30:54;;;;;;;3.00;1.40;;;;;;;20.51;60.48;99763.53;6010458;23;20031;-90
2021/08/27 10:33:41;;;;;;;3.35;1.23;;;;;;;20.62;60.43;99757.97;5986916;23;20032;-90
2021/08/27 10:36:28;;;;;;;5.95;1.10;;;;;;;20.79;60.30;99766.97;5996328;23;20038;-88
2021/08/27 10:38:56;;;;;;;2.47;1.08;;;;;;;20.91;60.01;99756.91;5991562;23;20039;-86
2021/08/27 10:41:39;;;;;;;5.35;1.50;;;;;;;20.98;60.08;99742.91;6010647;23;20023;-88
2021/08/27 10:44:13;;;;;;;3.90;1.38;;;;;;;21.13;59.13;99744.03;6011220;23;20453;-88
2021/08/27 10:47:05;;;;;;;4.85;1.52;;;;;;;21.21;58.50;99743.22;6010898;23;20020;-87
2021/08/27 10:49:47;;;;;;;2.47;1.33;;;;;;;21.27;59.31;99741.75;5981294;24;20080;-88
2021/08/27 10:52:27;;;;;;;4.40;1.48;;;;;;;21.38;59.43;99727.28;5981571;24;20043;-87
2021/08/27 10:55:03;;;;;;;2.38;1.27;;;;;;;21.55;59.52;99737.06;5981596;24;20031;-89
2021/08/27 10:57:59;;;;;;;3.60;1.40;;;;;;;21.73;59.46;99730.81;5982623;24;20496;-87
2021/08/27 11:00:35;;;;;;;3.60;1.83;;;;;;;21.93;58.05;99734.06;5982922;23;20024;-90
2021/08/27 11:03:03;;;;;;;9.32;1.48;;;;;;;22.06;57.77;99736.28;5983446;23;20049;-89
2021/08/27 11:05:31;;;;;;;4.60;1.60;;;;;;;22.11;57.29;99733.97;5981558;24;20024;-88
2021/08/27 11:08:06;;;;;;;2.65;1.25;;;;;;;22.10;56.89;99732.25;5981513;24;20024;-85
2021/08/27 11:10:35;;;;;;;3.03;1.60;;;;;;;22.13;56.95;99731.94;5982572;23;20032;-88
2021/08/27 11:13:08;;;;;;;3.67;1.65;;;;;;;22.10;56.68;99728.75;5982957;23;20051;-86
2021/08/27 11:15:36;;;;;;;6.32;1.63;;;;;;;22.09;56.84;99727.09;5982146;23;20035;-84
2021/08/27 11:18:07;;;;;;;3.13;1.65;;;;;;;22.06;56.35;99727.41;5982534;23;20086;-90
2021/08/27 11:20:34;;;;;;;4.03;1.58;;;;;;;22.04;56.44;99732.06;5982480;23;20031;-87
2021/08/27 11:23:01;;;;;;;3.30;1.60;;;;;;;22.02;56.25;99731.41;5980563;24;20028;-92
2021/08/27 11:25:31;;;;;;;2.47;1.05;;;;;;;21.97;56.04;99732.75;5981295;24;20028;-86
2021/08/27 11:28:18;;;;;;;3.33;1.67;;;;;;;21.85;56.23;99728.66;5981295;24;20054;-87
2021/08/27 11:30:46;;;;;;;3.65;1.50;;;;;;;21.83;56.12;99730.69;5982366;23;20028;-87
2021/08/27 11:33:38;;;;;;;3.35;1.30;;;;;;;21.67;56.00;99742.97;5982962;23;20059;-90
2021/08/27 11:36:05;;;;;;;2.63;1.50;;;;;;;21.61;55.95;99751.66;5982942;23;20020;-86
2021/08/27 11:38:32;;;;;;;6.35;1.52;;;;;;;21.49;56.34;99751.06;5982388;23;20457;-90
2021/08/27 11:40:59;;;;;;;4.80;1.20;;;;;;;21.35;56.23;99755.22;5982436;23;20844;-90
2021/08/27 11:43:36;;;;;;;3.47;1.65;;;;;;;21.17;56.99;99748.06;5981317;23;20061;-90
2021/08/27 11:46:05;;;;;;;3.95;1.25;;;;;;;21.07;57.10;99745.50;5982825;23;20461;-89